Time;durP1;ratioP1;P1;durP2;ratioP2;P2;SDS_P1;SDS_P2;PMS_P1;PMS_P2;Temp;Humidity;BMP_temperature;BMP_pressure;BME280_temperature;BME280_humidity;BME280_pressure;Samples;Min_cycle;Max_cycle;Signal;HPM_P1;HPM_P2
2022/02/03 00:51:02;;;;;;;18.50;9.75;;;7.10;99.90;;;;;;20829848;28;20038;-77
2022/02/03 01:01:04;;;;;;;19.10;9.77;;;7.10;99.90;;;;;;20828261;28;20399;-77
2022/02/03 01:11:11;;;;;;;23.52;9.57;;;7.10;99.90;;;;;;20828824;28;20308;-77
2022/02/03 01:52:10;;;;;;;22.87;10.47;;;7.00;99.90;;;;;;20826186;28;20033;-77
2022/02/03 02:02:11;;;;;;;19.35;10.35;;;7.00;99.90;;;;;;20823339;28;20495;-77
2022/02/03 02:12:42;;;;;;;21.30;10.63;;;7.00;99.90;;;;;;20823667;28;20034;-77
2022/02/03 02:43:46;;;;;;;21.77;11.75;;;6.90;99.90;;;;;;20823995;28;20039;-78
2022/02/03 03:44:59;;;;;;;24.10;11.43;;;6.80;99.90;;;;;;20835498;28;20048;-78
2022/02/03 05:50:16;;;;;;;14.57;6.85;;;6.40;99.90;;;;;;20742656;28;20412;-77
2022/02/03 06:31:06;;;;;;;12.40;5.10;;;6.00;99.90;;;;;;20775922;28;20437;-79
2022/02/03 06:41:06;;;;;;;5.07;2.53;;;5.80;99.90;;;;;;20741269;28;20100;-78
2022/02/03 06:51:14;;;;;;;4.97;2.90;;;5.40;99.90;;;;;;20749356;28;20076;-78
2022/02/03 07:01:20;;;;;;;4.63;2.47;;;5.40;99.90;;;;;;20767518;28;20291;-79
2022/02/03 07:11:23;;;;;;;4.07;2.20;;;5.40;99.90;;;;;;20793556;28;20120;-79
2022/02/03 07:21:24;;;;;;;6.68;3.67;;;4.90;99.90;;;;;;20810564;28;20105;-79
2022/02/03 07:31:27;;;;;;;29.73;15.17;;;5.00;99.90;;;;;;20819718;28;20022;-80
2022/02/03 07:41:27;;;;;;;23.13;12.18;;;5.50;99.90;;;;;;20817023;28;20068;-79
2022/02/03 07:51:28;;;;;;;24.88;12.45;;;5.80;99.90;;;;;;20814069;28;20034;-79
2022/02/03 08:01:29;;;;;;;23.20;11.63;;;6.00;99.90;;;;;;20822229;28;20053;-79
2022/02/03 08:11:36;;;;;;;28.80;14.48;;;6.10;99.90;;;;;;20813955;28;20038;-79
2022/02/03 08:21:42;;;;;;;36.67;16.27;;;6.30;99.90;;;;;;20768100;28;20112;-78
2022/02/03 08:31:52;;;;;;;30.23;15.95;;;6.20;99.90;;;;;;20766445;28;20089;-78
2022/02/03 08:41:55;;;;;;;23.67;13.25;;;6.50;99.90;;;;;;20756802;28;20037;-78
2022/02/03 08:52:02;;;;;;;19.17;9.65;;;7.40;99.90;;;;;;20742628;28;20030;-78
2022/02/03 10:04:08;;;;;;;23.02;11.50;;;7.20;99.90;;;;;;20744274;28;20515;-78
2022/02/03 10:14:09;;;;;;;21.05;11.43;;;7.40;99.90;;;;;;20730819;28;20037;-78
2022/02/03 10:24:15;;;;;;;22.23;10.53;;;7.50;99.90;;;;;;20750801;28;20038;-78
2022/02/03 10:34:24;;;;;;;28.60;12.02;;;7.40;99.90;;;;;;20755450;28;20591;-77
2022/02/03 11:15:16;;;;;;;32.90;12.05;;;7.70;99.90;;;;;;20754243;28;20065;-78
2022/02/03 12:17:38;;;;;;;25.60;10.77;;;7.10;99.90;;;;;;20953386;23;20090;-77
2022/02/03 12:28:04;;;;;;;19.88;9.63;;;6.90;99.90;;;;;;20997618;28;20364;-76
2022/02/03 12:48:11;;;;;;;15.27;8.23;;;6.90;99.90;;;;;;20912696;28;20392;-77
2022/02/03 12:58:16;;;;;;;20.45;8.73;;;7.20;99.90;;;;;;20912288;28;20049;-77
2022/02/03 13:08:17;;;;;;;17.98;8.70;;;7.50;99.90;;;;;;20911726;28;20453;-77
2022/02/03 13:18:30;;;;;;;12.90;7.43;;;7.70;99.90;;;;;;20910803;28;20024;-76
2022/02/03 13:28:49;;;;;;;15.18;7.07;;;7.70;99.90;;;;;;20910284;28;20035;-77
2022/02/03 13:49:04;;;;;;;10.75;5.72;;;7.70;99.90;;;;;;20908865;28;20124;-78
2022/02/03 14:30:17;;;;;;;8.48;5.20;;;8.00;99.90;;;;;;20870677;28;20045;-76
2022/02/03 14:50:37;;;;;;;10.20;5.60;;;7.50;99.90;;;;;;20888086;28;20087;-77
2022/02/03 15:00:38;;;;;;;8.27;4.97;;;7.20;99.90;;;;;;20905440;28;20556;-77
2022/02/03 15:20:42;;;;;;;10.43;5.90;;;6.80;99.90;;;;;;20912259;28;20033;-76
2022/02/03 15:30:43;;;;;;;15.10;5.90;;;6.70;99.90;;;;;;20916993;28;20586;-76
2022/02/03 15:40:46;;;;;;;9.93;5.87;;;6.70;99.90;;;;;;20944509;28;20041;-76
2022/02/03 16:21:27;;;;;;;11.52;6.47;;;6.10;99.90;;;;;;20895938;28;20526;-78
2022/02/03 17:01:49;;;;;;;15.38;8.45;;;5.20;99.90;;;;;;20909183;28;20044;-77
2022/02/03 17:11:49;;;;;;;;;;;5.00;99.90;;;;;;20911609;28;20029;-78
2022/02/03 17:21:50;;;;;;;15.85;8.15;;;4.90;99.90;;;;;;20910804;28;19939;-77
2022/02/03 17:32:04;;;;;;;;;;;5.10;99.90;;;;;;20910155;28;20025;-77
2022/02/03 17:52:56;;;;;;;24.55;10.57;;;5.00;99.90;;;;;;20908679;28;20368;-77
2022/02/03 20:16:40;;;;;;;14.52;6.82;;;3.50;99.90;;;;;;20847111;28;19920;-79
2022/02/03 20:26:43;;;;;;;17.77;8.50;;;3.70;99.90;;;;;;20856915;28;20071;-79
2022/02/03 20:36:45;;;;;;;15.90;7.45;;;3.50;99.90;;;;;;20855434;28;20041;-78
2022/02/03 20:46:45;;;;;;;17.13;7.97;;;3.10;99.90;;;;;;20843554;28;20036;-78
2022/02/03 20:56:47;;;;;;;12.07;6.70;;;3.20;99.90;;;;;;20841137;28;20033;-78
2022/02/03 21:06:48;;;;;;;13.57;6.32;;;3.10;99.90;;;;;;20845748;28;20071;-77
2022/02/03 21:16:51;;;;;;;11.35;6.65;;;3.10;99.90;;;;;;20844273;28;20026;-77
2022/02/03 21:26:54;;;;;;;10.90;6.90;;;3.00;99.90;;;;;;20831967;28;20034;-77
2022/02/03 21:36:56;;;;;;;19.70;8.60;;;2.50;99.90;;;;;;20844616;28;20040;-78
2022/02/03 21:46:56;;;;;;;18.27;8.75;;;2.60;99.90;;;;;;20904141;28;20055;-77
2022/02/03 21:56:57;;;;;;;16.58;8.63;;;2.30;99.90;;;;;;20907741;28;20025;-78
2022/02/03 22:06:58;;;;;;;16.83;8.30;;;2.30;99.90;;;;;;20907730;28;20049;-78
2022/02/03 22:17:01;;;;;;;20.77;9.80;;;2.40;99.90;;;;;;20904662;28;20028;-76
2022/02/03 22:47:44;;;;;;;21.92;9.90;;;2.00;99.90;;;;;;20880521;28;20041;-78
2022/02/03 22:57:58;;;;;;;25.15;10.52;;;1.80;99.90;;;;;;20825196;28;20072;-77
2022/02/03 23:08:18;;;;;;;31.00;10.45;;;1.80;99.90;;;;;;20917551;28;20082;-76
2022/02/03 23:18:30;;;;;;;26.17;11.95;;;1.30;99.90;;;;;;20925908;28;20108;-77
2022/02/03 23:28:33;;;;;;;26.38;11.73;;;1.30;99.90;;;;;;20927848;28;20124;-79
2022/02/03 23:38:49;;;;;;;26.88;11.73;;;1.70;99.90;;;;;;20945022;28;20044;-77
